CheckWX is a tool to help pilots better visualize weather data.  It is not intended as a substitute for an official pre-flight weather briefing.

08:45:04 UTC

LEMO METAR
Moron Air Base Airport
Morón, Spain
Current

45 mins ago

LEMO 280800Z 08014KT CAVOK 25/08 Q1018 NOSIG
Observed
May-28 @ 08:00 UTC
Wind
  • 080° at 14 KTS
Visibility
10,000+ meters
Flight Rules
VFR
Cloud Levels
  • Clear skies
Temperature
25°C / 77°F
Dewpoint
C / 46°F
Humidity
34%
Altimeter
30.06" Hg
Pressure
1017.92 hPa
Previous

2 hours ago

LEMO 280700Z 09011KT CAVOK 23/08 Q1018 NOSIG
Observed
May-28 @ 07:00 UTC
Wind
  • 090° at 11 KTS
Visibility
10,000+ meters
Flight Rules
VFR
Cloud Levels
  • Clear skies
Temperature
23°C / 73°F
Dewpoint
C / 46°F
Humidity
38%
Altimeter
30.06" Hg
Pressure
1017.92 hPa
Previous

3 hours ago

LEMO 280600Z 11011KT CAVOK 21/08 Q1018 NOSIG
Observed
May-28 @ 06:00 UTC
Wind
  • 110° at 11 KTS
Visibility
10,000+ meters
Flight Rules
VFR
Cloud Levels
  • Clear skies
Temperature
21°C / 70°F
Dewpoint
C / 46°F
Humidity
43%
Altimeter
30.06" Hg
Pressure
1017.92 hPa